createdAt,value
2019-02-21T00:02:06.672Z,21.75
2019-02-21T00:04:55.759Z,29.20
2019-02-21T00:07:45.121Z,25.20
2019-02-21T00:10:34.241Z,22.27
2019-02-21T00:13:23.243Z,27.55
2019-02-21T00:16:12.363Z,27.50
2019-02-21T00:19:02.088Z,26.95
2019-02-21T00:21:51.566Z,27.62
2019-02-21T00:24:40.510Z,26.68
2019-02-21T00:27:29.586Z,28.00
2019-02-21T00:30:19.070Z,28.77
2019-02-21T00:33:07.720Z,28.42
2019-02-21T00:35:56.619Z,22.52
2019-02-21T00:38:45.814Z,25.85
2019-02-21T00:41:34.931Z,26.93
2019-02-21T00:44:24.595Z,23.10
2019-02-21T00:47:13.652Z,22.50
2019-02-21T00:50:03.134Z,27.77
2019-02-21T00:52:52.312Z,31.75
2019-02-21T00:55:41.670Z,30.35
2019-02-21T00:58:30.743Z,27.22
2019-02-21T01:01:20.944Z,26.05
2019-02-21T01:04:11.432Z,24.80
2019-02-21T01:07:00.796Z,26.80
2019-02-21T01:09:50.455Z,29.75
2019-02-21T01:12:39.264Z,23.55
2019-02-21T01:15:29.015Z,24.90
2019-02-21T01:18:18.069Z,24.27
2019-02-21T01:21:07.136Z,27.52
2019-02-21T01:23:55.871Z,31.27
2019-02-21T01:26:45.371Z,29.48
2019-02-21T01:29:34.530Z,23.77
2019-02-21T01:32:23.379Z,28.00
2019-02-21T01:35:12.835Z,25.15
2019-02-21T01:38:01.622Z,24.87
2019-02-21T01:40:51.206Z,23.75
2019-02-21T01:43:40.879Z,25.57
2019-02-21T01:46:30.153Z,22.30
2019-02-21T01:49:19.308Z,30.40
2019-02-21T01:52:08.489Z,33.38
2019-02-21T01:54:58.069Z,27.82
2019-02-21T01:57:47.529Z,23.67
2019-02-21T02:00:37.341Z,23.25
2019-02-21T02:03:26.406Z,25.12
2019-02-21T02:06:15.455Z,41.90
2019-02-21T02:09:06.819Z,28.65
2019-02-21T02:11:56.249Z,21.57
2019-02-21T02:14:45.402Z,31.73
2019-02-21T02:17:34.888Z,25.57
2019-02-21T02:20:24.399Z,24.10
2019-02-21T02:23:13.734Z,25.68
2019-02-21T02:26:02.705Z,22.65
2019-02-21T02:28:51.351Z,27.10
2019-02-21T02:31:40.407Z,29.32
2019-02-21T02:34:29.756Z,25.12
2019-02-21T02:37:19.567Z,25.00
2019-02-21T02:40:08.998Z,25.23
2019-02-21T02:42:58.308Z,27.15
2019-02-21T02:45:47.224Z,29.92
2019-02-21T02:48:36.466Z,27.80
2019-02-21T02:51:25.263Z,29.27
2019-02-21T02:54:14.769Z,29.23
2019-02-21T02:57:04.423Z,32.95
2019-02-21T02:59:53.724Z,31.60
2019-02-21T03:02:42.176Z,29.37
2019-02-21T03:05:31.343Z,28.98
2019-02-21T03:08:20.307Z,31.20
2019-02-21T03:11:09.773Z,29.90
2019-02-21T03:13:58.629Z,33.28
2019-02-21T03:16:47.697Z,32.42
2019-02-21T03:19:36.550Z,33.95
2019-02-21T03:22:25.923Z,32.50
2019-02-21T03:25:14.723Z,30.60
2019-02-21T03:28:03.545Z,26.93
2019-02-21T03:30:52.783Z,33.55
2019-02-21T03:33:41.490Z,32.23
2019-02-21T03:36:30.952Z,28.60
2019-02-21T03:39:20.299Z,30.57
2019-02-21T03:42:10.205Z,33.18
2019-02-21T03:44:58.991Z,30.57
2019-02-21T03:47:48.471Z,27.75
2019-02-21T03:50:37.995Z,24.60
2019-02-21T03:53:26.765Z,32.50
2019-02-21T03:56:15.939Z,27.90
2019-02-21T03:59:05.009Z,34.85
2019-02-21T04:02:04.515Z,27.45
2019-02-21T04:04:44.561Z,26.57
2019-02-21T04:07:33.839Z,30.27
2019-02-21T04:10:23.508Z,30.48
2019-02-21T04:13:14.933Z,32.25
2019-02-21T04:16:02.819Z,32.55
2019-02-21T04:18:51.944Z,33.38
2019-02-21T04:21:40.658Z,29.72
2019-02-21T04:24:29.990Z,28.80
2019-02-21T04:27:19.022Z,25.48
2019-02-21T04:30:08.605Z,29.72
2019-02-21T04:32:58.264Z,29.98
2019-02-21T04:35:48.170Z,31.50
2019-02-21T04:38:36.802Z,28.27
2019-02-21T04:41:25.571Z,28.02
2019-02-21T04:44:14.634Z,29.85
2019-02-21T04:47:03.925Z,32.48
2019-02-21T04:49:53.179Z,29.77
2019-02-21T04:52:43.078Z,36.08
2019-02-21T04:55:32.427Z,31.50
2019-02-21T04:58:21.722Z,30.70
2019-02-21T05:01:10.871Z,35.10
2019-02-21T05:04:00.237Z,30.35
2019-02-21T05:06:49.511Z,35.80
2019-02-21T05:09:38.591Z,29.67
2019-02-21T05:12:27.270Z,24.75
2019-02-21T05:15:16.390Z,30.17
2019-02-21T05:18:05.770Z,30.62
2019-02-21T05:20:55.036Z,31.75
2019-02-21T05:23:43.923Z,32.35
2019-02-21T05:26:37.874Z,36.75
2019-02-21T05:29:26.620Z,32.90
2019-02-21T05:32:40.871Z,36.93
2019-02-21T05:36:23.510Z,34.35
2019-02-21T05:39:16.539Z,33.28
2019-02-21T05:42:10.518Z,32.95
2019-02-21T05:45:19.427Z,38.40
2019-02-21T05:48:24.723Z,29.27
2019-02-21T05:51:18.140Z,29.40
2019-02-21T05:54:12.752Z,33.28
2019-02-21T05:57:03.355Z,33.75
2019-02-21T06:00:10.269Z,33.70
2019-02-21T06:03:16.638Z,30.68
2019-02-21T06:06:07.383Z,32.40
2019-02-21T06:08:57.836Z,28.85
2019-02-21T06:11:59.950Z,29.30
2019-02-21T06:15:07.936Z,33.92
2019-02-21T06:17:59.030Z,28.95
2019-02-21T06:20:49.940Z,31.35
2019-02-21T06:23:52.217Z,30.32
2019-02-21T06:26:57.312Z,37.13
2019-02-21T06:29:50.857Z,33.85
2019-02-21T06:32:40.813Z,29.98
2019-02-21T06:35:30.604Z,30.48
2019-02-21T06:38:19.299Z,31.40
2019-02-21T06:41:08.613Z,29.75
2019-02-21T06:43:57.651Z,35.25
2019-02-21T06:46:47.356Z,28.65
2019-02-21T06:49:36.412Z,30.25
2019-02-21T06:52:25.714Z,31.25
2019-02-21T06:55:14.765Z,29.92
2019-02-21T06:58:03.724Z,31.48
2019-02-21T07:00:52.619Z,34.30
2019-02-21T07:03:42.365Z,34.53
2019-02-21T07:06:32.443Z,32.25
2019-02-21T07:09:21.960Z,35.78
2019-02-21T07:12:10.990Z,28.98
2019-02-21T07:14:59.845Z,33.63
2019-02-21T07:17:49.842Z,38.25
2019-02-21T07:20:39.795Z,29.70
2019-02-21T07:23:40.559Z,30.88
2019-02-21T07:26:19.598Z,29.37
2019-02-21T07:29:08.453Z,30.50
2019-02-21T07:31:57.157Z,28.10
2019-02-21T07:34:46.471Z,31.30
2019-02-21T07:37:35.714Z,29.82
2019-02-21T07:40:26.699Z,29.45
2019-02-21T07:43:15.787Z,31.02
2019-02-21T07:46:06.965Z,27.70
2019-02-21T07:48:55.648Z,30.82
2019-02-21T07:51:44.416Z,32.40
2019-02-21T07:54:34.124Z,26.90
2019-02-21T07:57:23.209Z,33.30
2019-02-21T08:00:14.203Z,35.50
2019-02-21T08:03:03.276Z,28.55
2019-02-21T08:05:52.843Z,29.10
2019-02-21T08:08:44.825Z,41.28
2019-02-21T08:11:32.502Z,30.10
2019-02-21T08:14:21.521Z,27.65
2019-02-21T08:17:10.768Z,28.02
2019-02-21T08:20:07.909Z,31.33
2019-02-21T08:22:50.303Z,34.40
2019-02-21T08:25:39.212Z,31.05
2019-02-21T08:28:28.639Z,32.88
2019-02-21T08:31:18.452Z,30.60
2019-02-21T08:34:11.581Z,34.75
2019-02-21T08:37:00.849Z,32.58
2019-02-21T08:39:49.895Z,33.02
2019-02-21T08:42:38.775Z,31.33
2019-02-21T08:45:27.865Z,29.72
2019-02-21T08:48:17.210Z,31.33
2019-02-21T08:51:06.422Z,28.73
2019-02-21T08:53:56.152Z,31.00
2019-02-21T08:56:45.728Z,29.05
2019-02-21T08:59:35.075Z,34.50
2019-02-21T09:02:24.372Z,32.03
2019-02-21T09:05:14.214Z,32.00
2019-02-21T09:08:03.530Z,33.13
2019-02-21T09:10:52.486Z,28.98
2019-02-21T09:13:41.926Z,33.23
2019-02-21T09:16:30.931Z,33.80
2019-02-21T09:19:20.300Z,34.70
2019-02-21T09:22:09.139Z,31.77
2019-02-21T09:24:58.636Z,33.30
2019-02-21T09:27:47.981Z,35.48
2019-02-21T09:30:37.481Z,33.33
2019-02-21T09:33:26.691Z,30.37
2019-02-21T09:36:15.824Z,36.42
2019-02-21T09:39:05.508Z,33.95
2019-02-21T09:41:54.293Z,35.10
2019-02-21T09:44:43.415Z,30.57
2019-02-21T09:47:33.047Z,26.80
2019-02-21T09:50:22.975Z,27.25
2019-02-21T09:53:12.184Z,33.42
2019-02-21T09:56:01.444Z,30.50
2019-02-21T09:58:50.717Z,31.70
2019-02-21T10:01:39.959Z,32.85
2019-02-21T10:04:32.088Z,34.98
2019-02-21T10:07:19.614Z,27.55
2019-02-21T10:10:20.938Z,33.65
2019-02-21T10:13:13.048Z,32.55
2019-02-21T10:16:01.047Z,31.77
2019-02-21T10:18:49.573Z,28.10
2019-02-21T10:21:38.973Z,29.98
2019-02-21T10:24:28.074Z,31.95
2019-02-21T10:27:17.315Z,32.50
2019-02-21T10:30:10.536Z,30.12
2019-02-21T10:33:01.063Z,30.25
2019-02-21T10:35:50.335Z,34.85
2019-02-21T10:38:39.441Z,32.50
2019-02-21T10:41:28.346Z,33.05
2019-02-21T10:44:17.939Z,31.90
2019-02-21T10:47:07.395Z,32.42
2019-02-21T10:49:56.679Z,32.63
2019-02-21T10:52:45.878Z,32.58
2019-02-21T10:55:35.325Z,36.35
2019-02-21T10:58:24.283Z,34.05
2019-02-21T11:01:13.488Z,31.87
2019-02-21T11:04:02.720Z,35.38
2019-02-21T11:06:51.375Z,34.90
2019-02-21T11:09:40.630Z,29.45
2019-02-21T11:12:29.699Z,32.20
2019-02-21T11:15:22.560Z,33.35
2019-02-21T11:18:11.826Z,32.10
2019-02-21T11:21:00.692Z,34.05
2019-02-21T11:23:49.865Z,33.42
2019-02-21T11:26:39.446Z,35.70
2019-02-21T11:29:28.356Z,38.78
2019-02-21T11:32:17.783Z,29.05
2019-02-21T11:35:08.137Z,36.55
2019-02-21T11:37:57.535Z,32.78
2019-02-21T11:40:47.112Z,31.68
2019-02-21T11:43:35.843Z,35.50
2019-02-21T11:46:25.041Z,36.85
2019-02-21T11:49:13.552Z,36.60
2019-02-21T11:52:09.796Z,34.10
2019-02-21T11:54:53.111Z,32.65
2019-02-21T11:57:42.936Z,36.35
2019-02-21T12:00:32.594Z,36.77
2019-02-21T12:03:22.187Z,48.33
2019-02-21T12:06:11.007Z,34.25
2019-02-21T12:09:00.420Z,38.65
2019-02-21T12:11:49.591Z,33.73
2019-02-21T12:14:38.659Z,33.30
2019-02-21T12:17:27.505Z,31.97
2019-02-21T12:20:18.670Z,30.85
2019-02-21T12:23:07.980Z,33.35
2019-02-21T12:25:57.268Z,31.70
2019-02-21T12:28:46.950Z,36.93
2019-02-21T12:31:35.775Z,35.03
2019-02-21T12:34:25.089Z,35.55
2019-02-21T12:37:14.503Z,36.23
2019-02-21T12:40:05.153Z,38.25
2019-02-21T12:42:53.985Z,33.70
2019-02-21T12:45:44.403Z,32.33
2019-02-21T12:48:33.313Z,36.23
2019-02-21T12:51:22.634Z,36.50
2019-02-21T12:54:11.497Z,42.43
2019-02-21T12:57:00.534Z,39.73
2019-02-21T12:59:49.298Z,33.48
2019-02-21T13:02:38.694Z,40.90
2019-02-21T13:05:27.202Z,39.25
2019-02-21T13:08:16.325Z,41.53
2019-02-21T13:11:05.556Z,36.03
2019-02-21T13:13:54.744Z,40.78
2019-02-21T13:16:44.350Z,37.25
2019-02-21T13:19:33.697Z,35.03
2019-02-21T13:22:22.958Z,41.98
2019-02-21T13:25:18.356Z,36.98
2019-02-21T13:28:08.056Z,42.35
2019-02-21T13:30:56.959Z,35.00
2019-02-21T13:33:46.111Z,37.45
2019-02-21T13:36:35.032Z,40.00
2019-02-21T13:39:24.524Z,39.78
2019-02-21T13:42:13.661Z,37.70
2019-02-21T13:45:02.551Z,37.73
2019-02-21T13:47:52.079Z,39.18
2019-02-21T13:50:41.038Z,36.80
2019-02-21T13:53:30.252Z,47.62
2019-02-21T13:56:19.151Z,39.45
2019-02-21T13:59:08.482Z,36.25
2019-02-21T14:01:57.525Z,40.05
2019-02-21T14:04:46.812Z,40.55
2019-02-21T14:07:37.368Z,43.42
2019-02-21T14:10:26.984Z,39.33
2019-02-21T14:13:15.854Z,36.03
2019-02-21T14:16:05.151Z,35.80
2019-02-21T14:18:54.497Z,35.92
2019-02-21T14:21:43.928Z,37.67
2019-02-21T14:24:36.809Z,36.13
2019-02-21T14:27:23.165Z,32.25
2019-02-21T14:30:20.887Z,34.80
2019-02-21T14:33:10.249Z,33.02
2019-02-21T14:35:59.457Z,39.98
2019-02-21T14:38:48.482Z,44.38
2019-02-21T14:41:38.070Z,39.78
2019-02-21T14:44:26.949Z,46.42
2019-02-21T14:47:16.098Z,39.78
2019-02-21T14:50:08.690Z,42.73
2019-02-21T14:52:57.919Z,49.93
2019-02-21T14:55:47.591Z,41.40
2019-02-21T14:58:36.352Z,41.35
2019-02-21T15:01:25.317Z,43.23
2019-02-21T15:04:14.659Z,46.85
2019-02-21T15:07:06.514Z,49.38
2019-02-21T15:09:54.452Z,44.85
2019-02-21T15:12:43.659Z,47.45
2019-02-21T15:15:32.685Z,51.37
2019-02-21T15:18:22.152Z,45.38
2019-02-21T15:21:11.503Z,46.15
2019-02-21T15:24:00.826Z,44.18
2019-02-21T15:26:50.302Z,43.15
2019-02-21T15:29:41.605Z,40.65
2019-02-21T15:32:30.487Z,43.78
2019-02-21T15:35:19.943Z,42.55
2019-02-21T15:38:19.621Z,43.58
2019-02-21T15:40:59.739Z,40.90
2019-02-21T15:43:48.754Z,37.78
2019-02-21T15:46:37.534Z,49.83
2019-02-21T15:49:27.291Z,38.80
2019-02-21T15:52:22.150Z,37.95
2019-02-21T15:55:19.036Z,41.77
2019-02-21T15:58:08.198Z,40.75
2019-02-21T16:00:57.478Z,38.05
2019-02-21T16:03:46.830Z,41.28
2019-02-21T16:06:37.977Z,39.08
2019-02-21T16:09:26.878Z,48.98
2019-02-21T16:12:16.957Z,44.03
2019-02-21T16:15:16.230Z,45.60
2019-02-21T16:18:04.358Z,30.97
2019-02-21T16:20:53.941Z,37.33
2019-02-21T16:23:42.753Z,39.65
2019-02-21T16:26:31.962Z,39.45
2019-02-21T16:29:21.336Z,35.23
2019-02-21T16:32:10.908Z,34.45
2019-02-21T16:35:00.156Z,36.40
2019-02-21T16:37:49.242Z,32.42
2019-02-21T16:40:38.151Z,33.23
2019-02-21T16:43:27.575Z,30.62
2019-02-21T16:46:16.713Z,31.62
2019-02-21T16:49:05.909Z,37.73
2019-02-21T16:51:54.965Z,28.42
2019-02-21T16:54:43.724Z,29.02
2019-02-21T16:57:34.215Z,28.73
2019-02-21T17:00:25.756Z,26.57
2019-02-21T17:03:15.230Z,26.37
2019-02-21T17:06:04.389Z,28.47
2019-02-21T17:08:53.252Z,28.25
2019-02-21T17:11:42.123Z,25.70
2019-02-21T17:14:31.273Z,31.02
2019-02-21T17:17:20.511Z,25.50
2019-02-21T17:20:14.074Z,25.32
2019-02-21T17:23:03.251Z,23.92
2019-02-21T17:25:56.956Z,29.60
2019-02-21T17:28:45.912Z,27.87
2019-02-21T17:31:37.254Z,23.75
2019-02-21T17:34:26.116Z,26.27
2019-02-21T17:37:24.661Z,23.15
2019-02-21T17:40:14.057Z,21.70
2019-02-21T17:43:03.170Z,18.12
2019-02-21T17:45:52.385Z,20.23
2019-02-21T17:48:41.718Z,21.17
2019-02-21T17:51:30.929Z,18.07
2019-02-21T17:54:19.991Z,27.05
2019-02-21T17:57:09.361Z,25.20
2019-02-21T17:59:58.391Z,21.35
2019-02-21T18:02:47.647Z,29.82
2019-02-21T18:05:36.976Z,24.52
2019-02-21T18:08:25.947Z,29.90
2019-02-21T18:11:15.468Z,26.07
2019-02-21T18:14:04.806Z,34.67
2019-02-21T18:16:53.939Z,26.90
2019-02-21T18:19:43.101Z,31.60
2019-02-21T18:22:32.273Z,29.82
2019-02-21T18:25:38.853Z,27.32
2019-02-21T18:28:28.106Z,24.95
2019-02-21T18:31:17.208Z,23.20
2019-02-21T18:34:06.257Z,21.97
2019-02-21T18:36:55.625Z,23.52
2019-02-21T18:39:44.720Z,29.07
2019-02-21T18:42:33.654Z,28.40
2019-02-21T18:45:23.022Z,21.65
2019-02-21T18:48:12.307Z,33.33
2019-02-21T18:51:01.656Z,20.77
2019-02-21T18:53:50.827Z,22.45
2019-02-21T18:56:39.787Z,25.92
2019-02-21T18:59:31.674Z,35.80
2019-02-21T19:02:19.926Z,22.15
2019-02-21T19:05:09.968Z,24.40
2019-02-21T19:08:05.251Z,28.80
2019-02-21T19:10:49.734Z,21.85
2019-02-21T19:13:38.819Z,22.50
2019-02-21T19:16:28.486Z,24.15
2019-02-21T19:19:17.695Z,28.20
2019-02-21T19:22:07.115Z,24.70
2019-02-21T19:24:56.256Z,28.10
2019-02-21T19:27:45.449Z,23.27
2019-02-21T19:30:45.671Z,25.45
2019-02-21T19:33:34.565Z,32.65
2019-02-21T19:36:25.857Z,21.62
2019-02-21T19:39:14.706Z,34.90
2019-02-21T19:42:03.589Z,21.75
2019-02-21T19:44:52.667Z,27.95
2019-02-21T19:47:42.209Z,28.85
2019-02-21T19:50:31.256Z,30.57
2019-02-21T19:53:20.544Z,33.28
2019-02-21T19:56:09.908Z,30.90
2019-02-21T19:58:59.116Z,24.87
2019-02-21T20:01:48.264Z,33.78
2019-02-21T20:04:37.027Z,30.65
2019-02-21T20:07:26.277Z,25.00
2019-02-21T20:10:16.083Z,33.53
2019-02-21T20:13:06.860Z,28.55
2019-02-21T20:15:55.784Z,30.15
2019-02-21T20:18:44.793Z,34.03
2019-02-21T20:21:34.117Z,32.93
2019-02-21T20:24:23.075Z,29.25
2019-02-21T20:27:12.383Z,33.70
2019-02-21T20:30:01.560Z,41.95
2019-02-21T20:32:50.922Z,35.88
2019-02-21T20:35:39.369Z,38.80
2019-02-21T20:38:32.061Z,36.03
2019-02-21T20:41:19.866Z,46.25
2019-02-21T20:44:08.595Z,55.17
2019-02-21T20:46:57.778Z,53.98
2019-02-21T20:49:46.870Z,54.35
2019-02-21T20:52:35.923Z,54.90
2019-02-21T20:55:25.199Z,50.40
2019-02-21T20:58:14.147Z,53.98
2019-02-21T21:01:03.187Z,62.53
2019-02-21T21:03:52.271Z,53.70
2019-02-21T21:06:41.540Z,62.38
2019-02-21T21:09:30.542Z,65.05
2019-02-21T21:12:19.576Z,69.53
2019-02-21T21:15:11.585Z,62.48
2019-02-21T21:18:01.078Z,76.95
2019-02-21T21:20:50.438Z,75.83
2019-02-21T21:23:40.227Z,70.80
2019-02-21T21:26:29.366Z,71.87
2019-02-21T21:29:18.775Z,73.60
2019-02-21T21:32:08.036Z,74.77
2019-02-21T21:34:56.784Z,67.15
2019-02-21T21:37:46.169Z,75.87
2019-02-21T21:40:34.685Z,76.00
2019-02-21T21:43:24.090Z,77.40
2019-02-21T21:46:13.120Z,75.78
2019-02-21T21:49:02.172Z,60.38
2019-02-21T21:51:50.799Z,69.62
2019-02-21T21:54:40.047Z,79.27
2019-02-21T21:57:29.993Z,62.27
2019-02-21T22:00:25.164Z,67.32
2019-02-21T22:03:14.301Z,75.90
2019-02-21T22:06:03.166Z,83.78
2019-02-21T22:08:52.432Z,70.65
2019-02-21T22:11:41.543Z,77.97
2019-02-21T22:14:30.877Z,98.25
2019-02-21T22:17:20.152Z,85.95
2019-02-21T22:20:09.973Z,91.90
2019-02-21T22:22:58.981Z,78.40
2019-02-21T22:25:49.208Z,75.85
2019-02-21T22:28:38.757Z,78.20
2019-02-21T22:31:27.733Z,98.75
2019-02-21T22:34:16.473Z,80.28
2019-02-21T22:37:05.527Z,85.38
2019-02-21T22:39:54.903Z,92.45
2019-02-21T22:42:44.176Z,92.33
2019-02-21T22:45:32.726Z,90.47
2019-02-21T22:48:21.994Z,87.37
2019-02-21T22:51:10.713Z,98.22
2019-02-21T22:53:59.921Z,88.10
2019-02-21T22:56:48.938Z,99.58
2019-02-21T22:59:38.462Z,101.18
2019-02-21T23:02:28.533Z,90.97
2019-02-21T23:05:24.522Z,93.17
2019-02-21T23:08:21.114Z,102.22
2019-02-21T23:11:09.935Z,90.45
2019-02-21T23:13:59.753Z,98.52
2019-02-21T23:16:49.240Z,104.78
2019-02-21T23:19:38.393Z,112.68
2019-02-21T23:22:27.050Z,124.00
2019-02-21T23:25:16.599Z,104.32
2019-02-21T23:28:05.857Z,101.00
2019-02-21T23:30:55.269Z,106.70
2019-02-21T23:33:46.048Z,99.95
2019-02-21T23:36:35.348Z,107.12
2019-02-21T23:39:23.844Z,104.60
2019-02-21T23:42:13.271Z,104.55
2019-02-21T23:45:02.855Z,95.92
2019-02-21T23:47:52.423Z,108.07
2019-02-21T23:50:41.958Z,93.67
2019-02-21T23:53:31.267Z,100.53
2019-02-21T23:56:20.145Z,92.57
2019-02-21T23:59:09.603Z,90.97
